Terminal Aerodrome Forecast
Issued by NWS

Home | Current Version | Previous Version | Text Only | Print | Product List | Glossary On
Versions: 1 2 3 4 5 6 7 8 9 10 11 12 13
000
FTPA31 PHFO 161731
TAFHJR
TAF
PHJR 161731Z 1618/1718 VRB02KT P6SM FEW045
     FM162100 16008KT P6SM FEW045 SCT250
     FM170600 02005KT P6SM FEW045 SCT250=

USA.gov is the U.S. government's official web portal to all federal, state and local government web resources and services.